createdAt,value
2023-04-05T00:02:24.607Z,13.20
2023-04-05T00:04:54.892Z,11.60
2023-04-05T00:07:24.497Z,14.80
2023-04-05T00:09:52.710Z,11.12
2023-04-05T00:12:20.960Z,15.08
2023-04-05T00:14:49.237Z,13.18
2023-04-05T00:17:17.947Z,15.32
2023-04-05T00:19:47.827Z,10.30
2023-04-05T00:22:17.743Z,12.43
2023-04-05T00:24:45.979Z,12.73
2023-04-05T00:27:14.275Z,15.80
2023-04-05T00:29:42.512Z,17.42
2023-04-05T00:32:10.815Z,16.48
2023-04-05T00:34:39.129Z,17.27
2023-04-05T00:37:07.380Z,14.98
2023-04-05T00:39:35.639Z,16.00
2023-04-05T00:42:04.340Z,12.58
2023-04-05T00:44:35.952Z,13.30
2023-04-05T00:47:07.504Z,12.87
2023-04-05T00:49:38.006Z,14.73
2023-04-05T00:52:06.836Z,14.30
2023-04-05T00:54:35.611Z,10.63
2023-04-05T00:57:05.581Z,13.32
2023-04-05T00:59:33.882Z,12.43
2023-04-05T01:02:04.707Z,15.95
2023-04-05T01:04:34.032Z,12.65
2023-04-05T01:07:10.225Z,10.35
2023-04-05T01:09:40.188Z,10.90
2023-04-05T01:12:09.898Z,9.83
2023-04-05T01:14:44.911Z,9.55
2023-04-05T01:17:13.163Z,11.30
2023-04-05T01:19:43.116Z,13.35
2023-04-05T01:22:29.805Z,10.80
2023-04-05T01:25:36.828Z,14.03
2023-04-05T01:28:09.381Z,10.88
2023-04-05T01:33:16.233Z,15.63
2023-04-05T01:35:54.531Z,10.85
2023-04-05T01:38:25.240Z,11.48
2023-04-05T01:40:54.399Z,10.32
2023-04-05T01:43:22.745Z,10.65
2023-04-05T01:45:50.989Z,11.25
2023-04-05T01:48:19.250Z,10.13
2023-04-05T01:50:47.518Z,12.75
2023-04-05T01:53:15.757Z,14.40
2023-04-05T01:55:44.004Z,13.53
2023-04-05T01:58:12.266Z,14.03
2023-04-05T02:00:40.728Z,13.88
2023-04-05T02:03:09.344Z,14.45
2023-04-05T02:05:37.661Z,12.98
2023-04-05T02:08:05.980Z,11.50
2023-04-05T02:10:35.435Z,12.00
2023-04-05T02:13:03.691Z,9.28
2023-04-05T02:15:33.026Z,10.65
2023-04-05T02:18:04.188Z,10.45
2023-04-05T02:20:32.886Z,9.90
2023-04-05T02:23:02.202Z,10.98
2023-04-05T02:25:30.612Z,14.05
2023-04-05T02:27:58.866Z,13.75
2023-04-05T02:30:28.906Z,10.80
2023-04-05T02:32:57.329Z,9.70
2023-04-05T02:35:25.804Z,9.68
2023-04-05T02:37:54.064Z,11.80
2023-04-05T02:40:22.783Z,9.45
2023-04-05T02:42:51.038Z,9.75
2023-04-05T02:45:19.563Z,11.30
2023-04-05T02:47:47.834Z,34.30
2023-04-05T02:50:17.719Z,20.35
2023-04-05T02:52:45.972Z,13.55
2023-04-05T02:55:14.228Z,12.53
2023-04-05T02:57:46.421Z,12.78
2023-04-05T03:00:14.860Z,10.55
2023-04-05T03:02:43.125Z,13.75
2023-04-05T03:05:11.342Z,13.28
2023-04-05T03:07:41.223Z,10.03
2023-04-05T03:10:09.577Z,11.20
2023-04-05T03:12:38.812Z,12.33
2023-04-05T03:15:07.392Z,11.12
2023-04-05T03:17:37.235Z,11.68
2023-04-05T03:20:09.318Z,16.30
2023-04-05T03:22:37.566Z,9.38
2023-04-05T03:25:06.305Z,11.50
2023-04-05T03:27:34.563Z,11.55
2023-04-05T03:30:02.818Z,14.47
2023-04-05T03:32:31.162Z,15.78
2023-04-05T03:34:59.417Z,10.15
2023-04-05T03:37:27.673Z,11.83
2023-04-05T03:39:55.931Z,11.10
2023-04-05T03:42:24.198Z,12.47
2023-04-05T03:44:54.111Z,15.03
2023-04-05T03:47:22.417Z,16.48
2023-04-05T03:49:50.705Z,16.55
2023-04-05T03:52:18.951Z,15.63
2023-04-05T03:54:47.226Z,15.45
2023-04-05T03:57:15.452Z,16.15
2023-04-05T03:59:43.725Z,12.13
2023-04-05T04:02:12.003Z,13.20
2023-04-05T04:04:40.956Z,12.65
2023-04-05T04:07:09.277Z,18.45
2023-04-05T04:09:37.509Z,12.47
2023-04-05T04:12:05.877Z,12.68
2023-04-05T04:14:36.611Z,12.03
2023-04-05T04:17:04.851Z,13.50
2023-04-05T04:19:33.158Z,16.50
2023-04-05T04:22:01.491Z,17.55
2023-04-05T04:24:31.394Z,14.75
2023-04-05T04:26:59.635Z,14.75
2023-04-05T04:29:29.549Z,15.08
2023-04-05T04:31:57.840Z,11.15
2023-04-05T04:34:26.065Z,10.32
2023-04-05T04:36:55.991Z,11.57
2023-04-05T04:39:25.884Z,12.80
2023-04-05T04:41:55.790Z,12.55
2023-04-05T04:44:25.701Z,13.95
2023-04-05T04:46:54.782Z,12.37
2023-04-05T04:49:23.783Z,13.28
2023-04-05T04:51:52.113Z,16.35
2023-04-05T04:54:23.181Z,13.28
2023-04-05T04:56:51.474Z,16.15
2023-04-05T04:59:19.787Z,10.93
2023-04-05T05:01:48.110Z,15.23
2023-04-05T05:04:16.432Z,14.18
2023-04-05T05:06:44.852Z,18.25
2023-04-05T05:09:13.124Z,15.93
2023-04-05T05:11:55.070Z,14.95
2023-04-05T05:14:23.314Z,14.70
2023-04-05T05:16:51.592Z,10.72
2023-04-05T05:19:19.996Z,15.05
2023-04-05T05:21:49.890Z,16.30
2023-04-05T05:24:18.178Z,13.43
2023-04-05T05:26:46.411Z,13.53
2023-04-05T05:29:14.684Z,13.40
2023-04-05T05:31:42.929Z,18.73
2023-04-05T05:34:23.300Z,12.60
2023-04-05T05:36:54.487Z,10.90
2023-04-05T05:39:23.486Z,10.60
2023-04-05T05:41:51.744Z,14.20
2023-04-05T05:44:39.358Z,17.17
2023-04-05T05:47:07.703Z,15.53
2023-04-05T05:49:38.604Z,12.25
2023-04-05T05:52:09.703Z,12.23
2023-04-05T05:54:37.993Z,12.70
2023-04-05T05:57:06.254Z,10.82
2023-04-05T05:59:34.566Z,10.25
2023-04-05T06:02:02.754Z,11.95
2023-04-05T06:04:31.178Z,12.47
2023-04-05T06:06:59.586Z,14.93
2023-04-05T06:09:28.883Z,40.78
2023-04-05T06:11:57.509Z,22.00
2023-04-05T06:14:25.934Z,13.40
2023-04-05T06:16:54.183Z,15.85
2023-04-05T06:19:22.632Z,21.50
2023-04-05T06:21:50.936Z,18.02
2023-04-05T06:24:19.215Z,14.18
2023-04-05T06:26:47.467Z,19.42
2023-04-05T06:29:15.752Z,16.37
2023-04-05T06:31:45.665Z,11.60
2023-04-05T06:34:13.895Z,8.98
2023-04-05T06:36:42.728Z,8.65
2023-04-05T06:39:10.994Z,11.18
2023-04-05T06:41:39.244Z,12.13
2023-04-05T06:44:07.610Z,13.53
2023-04-05T06:46:35.913Z,19.90
2023-04-05T06:49:04.344Z,11.90
2023-04-05T06:51:32.549Z,9.18
2023-04-05T06:54:00.802Z,11.40
2023-04-05T06:56:29.056Z,14.03
2023-04-05T06:58:58.974Z,8.08
2023-04-05T07:01:27.532Z,8.75
2023-04-05T07:03:56.025Z,8.50
2023-04-05T07:06:24.262Z,7.78
2023-04-05T07:08:52.540Z,8.33
2023-04-05T07:11:21.459Z,6.95
2023-04-05T07:13:49.687Z,13.62
2023-04-05T07:16:19.177Z,9.80
2023-04-05T07:18:47.488Z,8.53
2023-04-05T07:21:15.872Z,9.25
2023-04-05T07:23:44.123Z,11.83
2023-04-05T07:26:12.400Z,11.78
2023-04-05T07:28:40.712Z,14.15
2023-04-05T07:31:10.501Z,8.05
2023-04-05T07:33:38.743Z,8.60
2023-04-05T07:36:07.416Z,9.43
2023-04-05T07:38:35.703Z,11.20
2023-04-05T07:41:03.990Z,17.05
2023-04-05T07:43:32.239Z,14.70
2023-04-05T07:46:04.578Z,17.80
2023-04-05T07:48:32.849Z,8.43
2023-04-05T07:51:24.497Z,8.28
2023-04-05T07:53:52.724Z,9.70
2023-04-05T07:56:21.007Z,8.55
2023-04-05T07:58:51.006Z,11.28
2023-04-05T08:01:19.391Z,8.70
2023-04-05T08:03:49.198Z,11.10
2023-04-05T08:06:17.823Z,9.68
2023-04-05T08:08:46.548Z,8.18
2023-04-05T08:11:14.994Z,8.98
2023-04-05T08:13:43.576Z,9.20
2023-04-05T08:16:11.944Z,7.28
2023-04-05T08:18:40.297Z,6.80
2023-04-05T08:21:08.550Z,9.63
2023-04-05T08:23:36.845Z,6.85
2023-04-05T08:26:05.636Z,7.87
2023-04-05T08:28:34.534Z,7.28
2023-04-05T08:31:02.775Z,9.08
2023-04-05T08:33:31.215Z,9.05
2023-04-05T08:36:01.430Z,8.53
2023-04-05T08:38:29.729Z,8.48
2023-04-05T08:40:59.557Z,9.60
2023-04-05T08:43:47.554Z,8.53
2023-04-05T08:46:17.036Z,6.85
2023-04-05T08:48:45.694Z,8.35
2023-04-05T08:51:14.024Z,7.33
2023-04-05T08:53:42.280Z,11.90
2023-04-05T08:56:11.215Z,10.35
2023-04-05T08:58:40.195Z,7.12
2023-04-05T09:01:08.479Z,9.50
2023-04-05T09:03:37.430Z,9.03
2023-04-05T09:06:07.493Z,7.33
2023-04-05T09:08:35.712Z,7.85
2023-04-05T09:11:04.046Z,7.30
2023-04-05T09:13:32.342Z,9.48
2023-04-05T09:16:02.515Z,10.15
2023-04-05T09:18:31.856Z,9.50
2023-04-05T09:21:04.784Z,10.38
2023-04-05T09:23:34.917Z,8.20
2023-04-05T09:26:19.316Z,8.93
2023-04-05T09:28:47.680Z,8.63
2023-04-05T09:31:23.141Z,6.83
2023-04-05T09:33:51.462Z,8.65
2023-04-05T09:36:19.712Z,8.80
2023-04-05T09:38:48.063Z,7.78
2023-04-05T09:41:16.352Z,7.87
2023-04-05T09:43:44.769Z,10.13
2023-04-05T09:46:32.208Z,7.00
2023-04-05T09:49:02.990Z,9.68
2023-04-05T09:51:39.315Z,8.23
2023-04-05T09:54:08.457Z,7.80
2023-04-05T09:56:38.014Z,7.60
2023-04-05T09:59:11.324Z,7.75
2023-04-05T10:01:41.738Z,9.18
2023-04-05T10:04:10.397Z,7.03
2023-04-05T10:06:39.777Z,7.10
2023-04-05T10:09:09.140Z,8.43
2023-04-05T10:11:38.511Z,7.92
2023-04-05T10:14:08.142Z,7.47
2023-04-05T10:16:43.981Z,7.08
2023-04-05T10:19:13.836Z,9.73
2023-04-05T10:21:43.624Z,7.20
2023-04-05T10:24:16.376Z,7.75
2023-04-05T10:29:13.721Z,6.87
2023-04-05T10:31:52.768Z,8.33
2023-04-05T10:34:28.428Z,5.47
2023-04-05T10:37:02.542Z,6.65
2023-04-05T10:39:32.276Z,6.62
2023-04-05T10:42:11.549Z,7.75
2023-04-05T10:44:40.195Z,7.37
2023-04-05T10:47:10.067Z,8.50
2023-04-05T10:49:39.856Z,7.78
2023-04-05T10:52:08.112Z,7.05
2023-04-05T10:54:38.405Z,9.55
2023-04-05T10:57:09.661Z,7.78
2023-04-05T10:59:39.642Z,8.85
2023-04-05T11:02:09.579Z,9.23
2023-04-05T11:04:39.552Z,7.92
2023-04-05T11:07:14.879Z,8.43
2023-04-05T11:09:51.414Z,6.92
2023-04-05T11:12:22.576Z,9.08
2023-04-05T11:14:50.898Z,6.42
2023-04-05T11:17:26.252Z,9.30
2023-04-05T11:20:09.576Z,8.53
2023-04-05T11:22:37.836Z,8.75
2023-04-05T11:25:06.650Z,8.18
2023-04-05T11:27:40.472Z,8.70
2023-04-05T11:30:09.045Z,9.65
2023-04-05T11:32:46.247Z,9.55
2023-04-05T11:35:15.622Z,7.28
2023-04-05T11:37:56.495Z,8.50
2023-04-05T11:40:27.265Z,8.68
2023-04-05T11:43:12.126Z,9.25
2023-04-05T11:45:42.997Z,8.05
2023-04-05T11:48:14.081Z,9.88
2023-04-05T11:50:42.812Z,8.35
2023-04-05T11:53:12.966Z,9.33
2023-04-05T11:55:43.998Z,11.57
2023-04-05T11:58:21.384Z,9.70
2023-04-05T12:01:02.720Z,10.08
2023-04-05T12:03:31.972Z,10.88
2023-04-05T12:06:01.435Z,10.50
2023-04-05T12:08:41.865Z,8.55
2023-04-05T12:11:30.902Z,8.80
2023-04-05T12:14:00.796Z,9.48
2023-04-05T12:16:29.961Z,10.13
2023-04-05T12:18:59.444Z,8.80
2023-04-05T12:21:28.410Z,9.58
2023-04-05T12:23:56.884Z,9.43
2023-04-05T12:26:26.215Z,8.93
2023-04-05T12:28:58.118Z,9.53
2023-04-05T12:31:45.269Z,9.07
2023-04-05T12:34:14.296Z,9.40
2023-04-05T12:36:46.238Z,12.47
2023-04-05T12:39:16.180Z,8.80
2023-04-05T12:41:44.633Z,10.68
2023-04-05T12:44:14.410Z,9.13
2023-04-05T12:46:43.440Z,9.58
2023-04-05T12:49:18.376Z,9.10
2023-04-05T12:51:47.496Z,9.70
2023-04-05T12:54:16.668Z,10.82
2023-04-05T12:56:44.949Z,9.55
2023-04-05T12:59:13.237Z,10.15
2023-04-05T13:01:41.636Z,8.13
2023-04-05T13:04:16.000Z,8.63
2023-04-05T13:06:40.217Z,11.40
2023-04-05T13:09:08.644Z,8.85
2023-04-05T13:11:36.918Z,7.50
2023-04-05T13:14:05.175Z,7.40
2023-04-05T13:16:33.489Z,9.33
2023-04-05T13:19:01.814Z,8.33
2023-04-05T13:21:30.741Z,10.03
2023-04-05T13:23:58.982Z,7.72
2023-04-05T13:26:27.399Z,7.70
2023-04-05T13:28:55.730Z,7.08
2023-04-05T13:31:24.047Z,7.60
2023-04-05T13:33:52.483Z,7.05
2023-04-05T13:36:20.789Z,7.58
2023-04-05T13:38:49.080Z,6.67
2023-04-05T13:41:17.429Z,7.85
2023-04-05T13:43:45.690Z,9.00
2023-04-05T13:46:13.970Z,8.33
2023-04-05T13:48:42.312Z,7.67
2023-04-05T13:51:10.551Z,7.35
2023-04-05T13:53:38.939Z,7.58
2023-04-05T13:56:07.354Z,9.33
2023-04-05T13:58:36.006Z,8.43
2023-04-05T14:01:04.445Z,10.32
2023-04-05T14:03:32.835Z,9.63
2023-04-05T14:06:01.170Z,7.67
2023-04-05T14:08:29.462Z,9.18
2023-04-05T14:10:57.743Z,6.70
2023-04-05T14:13:26.000Z,10.15
2023-04-05T14:15:54.290Z,7.80
2023-04-05T14:18:22.646Z,8.80
2023-04-05T14:20:51.299Z,6.85
2023-04-05T14:23:19.644Z,7.33
2023-04-05T14:25:47.855Z,6.80
2023-04-05T14:28:16.164Z,7.95
2023-04-05T14:30:44.456Z,6.08
2023-04-05T14:33:14.698Z,8.10
2023-04-05T14:35:43.495Z,7.83
2023-04-05T14:38:13.697Z,8.05
2023-04-05T14:40:41.920Z,7.78
2023-04-05T14:43:10.945Z,6.65
2023-04-05T14:45:39.356Z,6.58
2023-04-05T14:48:07.797Z,8.38
2023-04-05T14:50:36.315Z,7.42
2023-04-05T14:53:04.565Z,7.95
2023-04-05T14:55:32.851Z,9.25
2023-04-05T14:58:01.128Z,9.88
2023-04-05T15:00:29.369Z,7.65
2023-04-05T15:02:58.886Z,8.58
2023-04-05T15:05:27.329Z,12.43
2023-04-05T15:07:55.711Z,9.78
2023-04-05T15:10:24.177Z,9.20
2023-04-05T15:12:52.495Z,7.83
2023-04-05T15:15:20.969Z,8.45
2023-04-05T15:17:49.820Z,7.00
2023-04-05T15:20:18.029Z,7.03
2023-04-05T15:22:46.402Z,8.23
2023-04-05T15:25:14.730Z,10.82
2023-04-05T15:27:43.090Z,9.35
2023-04-05T15:30:14.026Z,9.35
2023-04-05T15:32:42.323Z,9.83
2023-04-05T15:35:10.711Z,12.05
2023-04-05T15:37:39.268Z,8.83
2023-04-05T15:40:07.846Z,9.35
2023-04-05T15:42:36.195Z,9.05
2023-04-05T15:45:04.606Z,10.15
2023-04-05T15:47:32.897Z,7.75
2023-04-05T15:50:01.116Z,9.03
2023-04-05T15:52:29.437Z,7.70
2023-04-05T15:54:57.764Z,8.38
2023-04-05T15:57:26.088Z,9.63
2023-04-05T15:59:54.382Z,7.65
2023-04-05T16:02:22.795Z,7.10
2023-04-05T16:04:51.371Z,9.85
2023-04-05T16:07:19.902Z,7.95
2023-04-05T16:09:48.196Z,9.23
2023-04-05T16:12:16.532Z,8.65
2023-04-05T16:14:44.807Z,8.40
2023-04-05T16:17:13.150Z,7.58
2023-04-05T16:19:41.670Z,8.95
2023-04-05T16:22:10.555Z,7.15
2023-04-05T16:24:39.068Z,9.25
2023-04-05T16:27:07.349Z,7.30
2023-04-05T16:29:35.603Z,9.65
2023-04-05T16:32:04.223Z,8.28
2023-04-05T16:34:32.555Z,9.15
2023-04-05T16:37:00.935Z,9.95
2023-04-05T16:39:29.187Z,9.93
2023-04-05T16:41:57.553Z,8.60
2023-04-05T16:44:26.048Z,7.85
2023-04-05T16:46:54.276Z,7.62
2023-04-05T16:49:22.517Z,7.35
2023-04-05T16:51:50.792Z,10.70
2023-04-05T16:54:19.035Z,10.63
2023-04-05T16:56:47.335Z,9.43
2023-04-05T16:59:16.054Z,9.15
2023-04-05T17:01:44.390Z,8.93
2023-04-05T17:04:12.683Z,8.88
2023-04-05T17:06:41.172Z,8.35
2023-04-05T17:09:18.589Z,9.10
2023-04-05T17:11:47.007Z,7.97
2023-04-05T17:14:15.390Z,9.35
2023-04-05T17:16:43.639Z,9.15
2023-04-05T17:19:11.888Z,10.82
2023-04-05T17:21:40.222Z,10.78
2023-04-05T17:24:08.684Z,11.50
2023-04-05T17:26:37.019Z,10.80
2023-04-05T17:29:05.677Z,10.43
2023-04-05T17:31:34.276Z,9.03
2023-04-05T17:34:02.750Z,10.28
2023-04-05T17:36:31.362Z,11.60
2023-04-05T17:38:59.654Z,10.78
2023-04-05T17:41:28.089Z,13.28
2023-04-05T17:43:56.332Z,12.60
2023-04-05T17:46:37.830Z,12.80
2023-04-05T17:48:56.406Z,11.30
2023-04-05T17:51:24.659Z,12.50
2023-04-05T17:53:52.928Z,13.83
2023-04-05T17:56:22.660Z,11.78
2023-04-05T17:58:51.013Z,9.85
2023-04-05T18:01:19.402Z,12.90
2023-04-05T18:03:47.873Z,11.88
2023-04-05T18:06:17.768Z,12.63
2023-04-05T18:08:46.185Z,12.33
2023-04-05T18:11:14.378Z,12.40
2023-04-05T18:13:42.653Z,11.95
2023-04-05T18:16:11.346Z,10.38
2023-04-05T18:18:39.659Z,11.73
2023-04-05T18:21:07.955Z,14.75
2023-04-05T18:23:36.208Z,13.28
2023-04-05T18:26:07.945Z,11.18
2023-04-05T18:28:36.275Z,13.30
2023-04-05T18:31:04.745Z,11.73
2023-04-05T18:33:32.952Z,11.28
2023-04-05T18:36:01.955Z,12.18
2023-04-05T18:38:30.335Z,12.73
2023-04-05T18:41:21.182Z,11.28
2023-04-05T18:43:51.071Z,15.50
2023-04-05T18:46:19.447Z,19.37
2023-04-05T18:48:49.424Z,19.05
2023-04-05T18:51:17.847Z,13.48
2023-04-05T18:53:46.117Z,13.88
2023-04-05T18:56:14.383Z,12.37
2023-04-05T18:58:42.714Z,15.38
2023-04-05T19:01:12.653Z,15.30
2023-04-05T19:03:45.152Z,12.05
2023-04-05T19:06:13.964Z,14.70
2023-04-05T19:08:42.388Z,14.10
2023-04-05T19:11:31.478Z,15.05
2023-04-05T19:14:01.652Z,16.95
2023-04-05T19:16:30.927Z,50.65
2023-04-05T19:18:59.242Z,15.80
2023-04-05T19:21:27.505Z,12.20
2023-04-05T19:23:55.931Z,11.35
2023-04-05T19:26:24.290Z,13.40
2023-04-05T19:28:52.605Z,15.38
2023-04-05T19:31:20.987Z,15.48
2023-04-05T19:33:50.196Z,16.73
2023-04-05T19:36:18.528Z,20.12
2023-04-05T19:38:46.862Z,15.08
2023-04-05T19:41:15.300Z,17.12
2023-04-05T19:43:43.538Z,16.42
2023-04-05T19:46:12.012Z,14.45
2023-04-05T19:48:40.876Z,13.90
2023-04-05T19:51:10.187Z,14.25
2023-04-05T19:53:50.694Z,13.03
2023-04-05T19:56:23.418Z,11.15
2023-04-05T19:58:53.286Z,12.82
2023-04-05T20:01:35.155Z,11.93
2023-04-05T20:04:05.056Z,14.43
2023-04-05T20:06:34.425Z,14.00
2023-04-05T20:09:04.321Z,16.35
2023-04-05T20:11:32.852Z,12.35
2023-04-05T20:14:02.094Z,13.43
2023-04-05T20:16:34.132Z,14.03
2023-04-05T20:19:06.817Z,41.30
2023-04-05T20:21:35.558Z,19.60
2023-04-05T20:24:05.336Z,19.77
2023-04-05T20:26:33.700Z,15.78
2023-04-05T20:29:03.182Z,16.05
2023-04-05T20:31:32.341Z,13.75
2023-04-05T20:34:02.172Z,13.20
2023-04-05T20:36:32.964Z,14.75
2023-04-05T20:39:02.287Z,13.20
2023-04-05T20:41:31.692Z,12.73
2023-04-05T20:44:00.488Z,11.45
2023-04-05T20:46:28.874Z,15.05
2023-04-05T20:48:57.991Z,12.18
2023-04-05T20:51:26.768Z,15.25
2023-04-05T20:53:54.952Z,12.70
2023-04-05T20:56:23.285Z,15.93
2023-04-05T20:58:52.440Z,13.88
2023-04-05T21:01:20.967Z,16.50
2023-04-05T21:03:49.401Z,13.72
2023-04-05T21:06:17.740Z,14.83
2023-04-05T21:09:05.411Z,15.18
2023-04-05T21:11:33.653Z,16.85
2023-04-05T21:14:01.967Z,17.12
2023-04-05T21:16:31.388Z,13.22
2023-04-05T21:18:59.644Z,13.13
2023-04-05T21:21:27.919Z,15.08
2023-04-05T21:24:02.223Z,15.23
2023-04-05T21:26:31.105Z,14.93
2023-04-05T21:28:59.754Z,11.65
2023-04-05T21:31:28.268Z,13.25
2023-04-05T21:33:56.818Z,15.28
2023-04-05T21:36:26.658Z,11.85
2023-04-05T21:38:55.962Z,12.47
2023-04-05T21:41:24.311Z,15.63
2023-04-05T21:43:52.513Z,13.68
2023-04-05T21:46:21.367Z,22.75
2023-04-05T21:48:49.634Z,15.28
2023-04-05T21:51:17.892Z,13.85
2023-04-05T21:53:46.235Z,14.30
2023-04-05T21:56:15.301Z,14.83
2023-04-05T21:58:43.526Z,15.08
2023-04-05T22:01:11.880Z,14.55
2023-04-05T22:03:40.304Z,16.97
2023-04-05T22:06:08.581Z,15.13
2023-04-05T22:08:36.911Z,19.12
2023-04-05T22:11:05.247Z,16.70
2023-04-05T22:13:33.496Z,18.85
2023-04-05T22:16:01.825Z,19.27
2023-04-05T22:18:30.209Z,15.83
2023-04-05T22:20:58.510Z,18.73
2023-04-05T22:23:26.792Z,15.43
2023-04-05T22:25:55.319Z,14.25
2023-04-05T22:28:23.570Z,16.15
2023-04-05T22:30:51.836Z,16.48
2023-04-05T22:33:20.118Z,16.10
2023-04-05T22:35:48.421Z,14.30
2023-04-05T22:38:16.672Z,18.48
2023-04-05T22:40:46.176Z,16.97
2023-04-05T22:43:14.537Z,22.22
2023-04-05T22:45:42.991Z,17.20
2023-04-05T22:48:11.250Z,18.23
2023-04-05T22:50:39.569Z,19.12
2023-04-05T22:53:08.101Z,16.30
2023-04-05T22:55:38.012Z,14.30
2023-04-05T22:58:06.867Z,17.75
2023-04-05T23:00:38.283Z,12.18
2023-04-05T23:03:06.786Z,17.90
2023-04-05T23:05:36.690Z,17.23
2023-04-05T23:08:05.122Z,16.45
2023-04-05T23:10:33.414Z,18.23
2023-04-05T23:13:01.687Z,16.02
2023-04-05T23:15:29.960Z,15.60
2023-04-05T23:18:00.701Z,16.00
2023-04-05T23:20:28.971Z,16.73
2023-04-05T23:22:57.400Z,13.62
2023-04-05T23:25:25.720Z,13.48
2023-04-05T23:27:54.303Z,17.62
2023-04-05T23:30:22.710Z,14.90
2023-04-05T23:32:51.041Z,16.30
2023-04-05T23:35:19.368Z,17.32
2023-04-05T23:37:47.700Z,18.87
2023-04-05T23:40:16.038Z,17.42
2023-04-05T23:42:46.132Z,17.30
2023-04-05T23:45:14.469Z,18.85
2023-04-05T23:47:43.914Z,19.30
2023-04-05T23:50:12.295Z,22.93
2023-04-05T23:52:40.555Z,16.45
2023-04-05T23:55:09.143Z,19.82
2023-04-05T23:57:37.390Z,17.05
